sensor_id;sensor_type;location;lat;lon;timestamp;P1;P2;P0
56495;PMS5003;42804;55.762;38.084;2023-05-29T00:01:45;1.75;1.00;0.00
56495;PMS5003;42804;55.762;38.084;2023-05-29T00:04:14;9.00;7.00;5.50
56495;PMS5003;42804;55.762;38.084;2023-05-29T00:06:45;9.25;7.50;5.00
56495;PMS5003;42804;55.762;38.084;2023-05-29T00:09:13;8.00;6.00;3.25
56495;PMS5003;42804;55.762;38.084;2023-05-29T00:11:42;5.75;5.00;4.00
56495;PMS5003;42804;55.762;38.084;2023-05-29T00:14:10;8.25;8.00;5.00
56495;PMS5003;42804;55.762;38.084;2023-05-29T00:16:40;5.25;4.00;2.50
56495;PMS5003;42804;55.762;38.084;2023-05-29T00:19:11;6.00;6.00;3.00
56495;PMS5003;42804;55.762;38.084;2023-05-29T00:21:41;5.25;5.00;3.00
56495;PMS5003;42804;55.762;38.084;2023-05-29T00:24:09;8.00;6.75;5.50
56495;PMS5003;42804;55.762;38.084;2023-05-29T00:26:37;6.00;6.00;3.75
56495;PMS5003;42804;55.762;38.084;2023-05-29T00:29:05;7.50;6.75;5.00
56495;PMS5003;42804;55.762;38.084;2023-05-29T00:31:34;8.00;8.00;5.25
56495;PMS5003;42804;55.762;38.084;2023-05-29T00:34:05;7.25;7.00;4.50
56495;PMS5003;42804;55.762;38.084;2023-05-29T00:36:34;7.50;7.25;5.00
56495;PMS5003;42804;55.762;38.084;2023-05-29T00:39:05;7.75;6.25;4.50
56495;PMS5003;42804;55.762;38.084;2023-05-29T00:41:33;6.00;4.75;2.50
56495;PMS5003;42804;55.762;38.084;2023-05-29T00:44:01;11.00;9.00;5.00
56495;PMS5003;42804;55.762;38.084;2023-05-29T00:46:29;9.50;8.25;5.75
56495;PMS5003;42804;55.762;38.084;2023-05-29T00:48:58;5.50;5.25;2.00
56495;PMS5003;42804;55.762;38.084;2023-05-29T00:51:28;7.25;6.25;5.00
56495;PMS5003;42804;55.762;38.084;2023-05-29T00:53:59;7.00;7.00;5.00
56495;PMS5003;42804;55.762;38.084;2023-05-29T00:56:29;6.75;6.75;3.00
56495;PMS5003;42804;55.762;38.084;2023-05-29T00:58:57;8.00;7.00;6.00
56495;PMS5003;42804;55.762;38.084;2023-05-29T01:01:26;6.00;6.00;5.00
56495;PMS5003;42804;55.762;38.084;2023-05-29T01:03:54;6.75;6.00;4.00
56495;PMS5003;42804;55.762;38.084;2023-05-29T01:06:24;9.00;8.50;5.00
56495;PMS5003;42804;55.762;38.084;2023-05-29T01:08:52;7.00;6.25;3.75
56495;PMS5003;42804;55.762;38.084;2023-05-29T01:11:22;7.75;6.50;3.00
56495;PMS5003;42804;55.762;38.084;2023-05-29T01:13:54;7.00;7.00;4.50
56495;PMS5003;42804;55.762;38.084;2023-05-29T01:16:26;9.50;9.00;6.00
56495;PMS5003;42804;55.762;38.084;2023-05-29T01:19:01;7.50;7.50;4.25
56495;PMS5003;42804;55.762;38.084;2023-05-29T01:21:49;7.25;6.75;3.75
56495;PMS5003;42804;55.762;38.084;2023-05-29T01:24:26;5.75;5.00;3.25
56495;PMS5003;42804;55.762;38.084;2023-05-29T01:26:59;4.00;4.00;2.50
56495;PMS5003;42804;55.762;38.084;2023-05-29T01:29:29;9.00;8.25;6.50
56495;PMS5003;42804;55.762;38.084;2023-05-29T01:31:58;7.00;7.00;3.25
56495;PMS5003;42804;55.762;38.084;2023-05-29T01:34:28;7.00;7.00;4.00
56495;PMS5003;42804;55.762;38.084;2023-05-29T01:36:56;7.25;7.25;5.00
56495;PMS5003;42804;55.762;38.084;2023-05-29T01:39:24;5.00;5.00;3.00
56495;PMS5003;42804;55.762;38.084;2023-05-29T01:41:53;8.50;7.50;4.00
56495;PMS5003;42804;55.762;38.084;2023-05-29T01:44:24;4.75;4.75;3.00
56495;PMS5003;42804;55.762;38.084;2023-05-29T01:46:55;6.50;6.00;3.25
56495;PMS5003;42804;55.762;38.084;2023-05-29T01:49:24;5.00;5.00;4.00
56495;PMS5003;42804;55.762;38.084;2023-05-29T01:51:52;6.00;6.00;4.00
56495;PMS5003;42804;55.762;38.084;2023-05-29T01:54:20;6.50;4.50;3.50
56495;PMS5003;42804;55.762;38.084;2023-05-29T01:56:49;3.75;3.50;2.00
56495;PMS5003;42804;55.762;38.084;2023-05-29T01:59:17;4.25;4.00;2.75
56495;PMS5003;42804;55.762;38.084;2023-05-29T02:01:47;5.25;5.00;3.75
56495;PMS5003;42804;55.762;38.084;2023-05-29T02:04:15;4.75;4.50;3.00
56495;PMS5003;42804;55.762;38.084;2023-05-29T02:06:43;6.00;6.00;4.75
56495;PMS5003;42804;55.762;38.084;2023-05-29T02:09:12;8.50;6.75;4.25
56495;PMS5003;42804;55.762;38.084;2023-05-29T02:11:40;5.00;5.00;4.00
56495;PMS5003;42804;55.762;38.084;2023-05-29T02:14:12;7.75;6.75;4.25
56495;PMS5003;42804;55.762;38.084;2023-05-29T02:16:41;5.00;5.00;4.00
56495;PMS5003;42804;55.762;38.084;2023-05-29T02:19:12;5.00;4.50;3.50
56495;PMS5003;42804;55.762;38.084;2023-05-29T02:21:40;6.00;6.00;4.00
56495;PMS5003;42804;55.762;38.084;2023-05-29T02:24:08;5.00;5.00;4.00
56495;PMS5003;42804;55.762;38.084;2023-05-29T02:26:37;5.25;5.25;3.75
56495;PMS5003;42804;55.762;38.084;2023-05-29T02:29:05;5.00;4.75;4.00
56495;PMS5003;42804;55.762;38.084;2023-05-29T02:31:33;4.50;4.25;3.00
56495;PMS5003;42804;55.762;38.084;2023-05-29T02:34:04;1.00;1.00;0.00
56495;PMS5003;42804;55.762;38.084;2023-05-29T02:36:34;4.00;4.00;3.00
56495;PMS5003;42804;55.762;38.084;2023-05-29T02:39:04;5.75;5.50;3.50
56495;PMS5003;42804;55.762;38.084;2023-05-29T02:41:32;3.00;2.50;1.25
56495;PMS5003;42804;55.762;38.084;2023-05-29T02:44:00;5.25;5.25;4.25
56495;PMS5003;42804;55.762;38.084;2023-05-29T02:46:28;7.50;7.00;4.00
56495;PMS5003;42804;55.762;38.084;2023-05-29T02:48:57;6.50;6.25;4.25
56495;PMS5003;42804;55.762;38.084;2023-05-29T02:51:25;5.75;5.00;3.00
56495;PMS5003;42804;55.762;38.084;2023-05-29T02:53:55;5.00;5.00;3.00
56495;PMS5003;42804;55.762;38.084;2023-05-29T02:56:24;6.50;6.00;3.00
56495;PMS5003;42804;55.762;38.084;2023-05-29T02:58:52;4.50;4.50;2.50
56495;PMS5003;42804;55.762;38.084;2023-05-29T03:01:21;2.25;2.00;1.00
56495;PMS5003;42804;55.762;38.084;2023-05-29T03:03:49;6.40;5.80;3.60
56495;PMS5003;42804;55.762;38.084;2023-05-29T03:06:17;4.50;4.50;3.50
56495;PMS5003;42804;55.762;38.084;2023-05-29T03:08:45;2.00;2.00;0.50
56495;PMS5003;42804;55.762;38.084;2023-05-29T03:11:16;4.00;4.00;2.00
56495;PMS5003;42804;55.762;38.084;2023-05-29T03:13:44;7.00;6.25;4.00
56495;PMS5003;42804;55.762;38.084;2023-05-29T03:16:13;4.25;4.00;3.00
56495;PMS5003;42804;55.762;38.084;2023-05-29T03:18:44;4.25;4.25;3.00
56495;PMS5003;42804;55.762;38.084;2023-05-29T03:21:15;5.75;5.75;3.50
56495;PMS5003;42804;55.762;38.084;2023-05-29T03:23:44;3.50;3.50;2.00
56495;PMS5003;42804;55.762;38.084;2023-05-29T03:26:12;4.50;4.00;2.75
56495;PMS5003;42804;55.762;38.084;2023-05-29T03:28:43;6.00;4.00;3.00
56495;PMS5003;42804;55.762;38.084;2023-05-29T03:31:12;4.75;4.00;2.00
56495;PMS5003;42804;55.762;38.084;2023-05-29T03:33:40;4.75;4.25;3.25
56495;PMS5003;42804;55.762;38.084;2023-05-29T03:36:19;5.50;5.00;4.00
56495;PMS5003;42804;55.762;38.084;2023-05-29T03:38:48;4.25;4.25;3.00
56495;PMS5003;42804;55.762;38.084;2023-05-29T03:41:17;7.50;6.00;4.00
56495;PMS5003;42804;55.762;38.084;2023-05-29T03:43:47;4.75;4.00;3.00
56495;PMS5003;42804;55.762;38.084;2023-05-29T03:46:18;5.00;4.00;2.75
56495;PMS5003;42804;55.762;38.084;2023-05-29T03:48:46;5.25;4.00;3.00
56495;PMS5003;42804;55.762;38.084;2023-05-29T03:51:14;5.00;5.00;3.00
56495;PMS5003;42804;55.762;38.084;2023-05-29T03:53:44;3.25;3.25;2.00
56495;PMS5003;42804;55.762;38.084;2023-05-29T03:56:12;5.00;5.00;3.00
56495;PMS5003;42804;55.762;38.084;2023-05-29T03:58:40;5.25;4.50;3.00
56495;PMS5003;42804;55.762;38.084;2023-05-29T04:01:10;4.50;4.50;3.25
56495;PMS5003;42804;55.762;38.084;2023-05-29T04:03:38;3.50;3.50;3.00
56495;PMS5003;42804;55.762;38.084;2023-05-29T04:06:07;3.00;2.75;2.00
56495;PMS5003;42804;55.762;38.084;2023-05-29T04:08:35;4.25;3.50;2.00
56495;PMS5003;42804;55.762;38.084;2023-05-29T04:11:20;3.00;3.00;2.00
56495;PMS5003;42804;55.762;38.084;2023-05-29T04:16:54;2.75;2.25;2.00
56495;PMS5003;42804;55.762;38.084;2023-05-29T04:19:40;3.00;3.00;2.25
56495;PMS5003;42804;55.762;38.084;2023-05-29T04:22:09;1.75;1.75;1.00
56495;PMS5003;42804;55.762;38.084;2023-05-29T04:24:38;3.25;3.00;2.00
56495;PMS5003;42804;55.762;38.084;2023-05-29T04:27:07;2.50;2.50;1.50
56495;PMS5003;42804;55.762;38.084;2023-05-29T04:29:35;3.50;3.50;2.50
56495;PMS5003;42804;55.762;38.084;2023-05-29T04:32:08;3.00;3.00;2.00
56495;PMS5003;42804;55.762;38.084;2023-05-29T04:34:38;5.25;4.50;2.00
56495;PMS5003;42804;55.762;38.084;2023-05-29T04:37:25;3.00;3.00;2.50
56495;PMS5003;42804;55.762;38.084;2023-05-29T04:40:14;3.25;3.25;2.25
56495;PMS5003;42804;55.762;38.084;2023-05-29T04:42:45;3.00;2.00;2.00
56495;PMS5003;42804;55.762;38.084;2023-05-29T04:45:15;3.75;3.75;2.00
56495;PMS5003;42804;55.762;38.084;2023-05-29T04:47:48;2.75;2.00;1.25
56495;PMS5003;42804;55.762;38.084;2023-05-29T04:50:16;4.25;4.00;2.00
56495;PMS5003;42804;55.762;38.084;2023-05-29T04:52:45;3.50;3.00;2.00
56495;PMS5003;42804;55.762;38.084;2023-05-29T04:55:13;1.75;0.75;0.75
56495;PMS5003;42804;55.762;38.084;2023-05-29T04:57:42;4.00;3.25;2.00
56495;PMS5003;42804;55.762;38.084;2023-05-29T05:00:11;2.00;1.00;0.00
56495;PMS5003;42804;55.762;38.084;2023-05-29T05:02:43;2.50;2.00;1.25
56495;PMS5003;42804;55.762;38.084;2023-05-29T05:05:14;2.75;2.75;1.00
56495;PMS5003;42804;55.762;38.084;2023-05-29T05:07:43;3.00;2.50;1.00
56495;PMS5003;42804;55.762;38.084;2023-05-29T05:10:12;2.25;2.00;1.50
56495;PMS5003;42804;55.762;38.084;2023-05-29T05:12:40;3.00;3.00;2.00
56495;PMS5003;42804;55.762;38.084;2023-05-29T05:15:09;2.25;2.25;1.00
56495;PMS5003;42804;55.762;38.084;2023-05-29T05:17:38;3.00;3.00;2.00
56495;PMS5003;42804;55.762;38.084;2023-05-29T05:20:07;4.00;4.00;2.00
56495;PMS5003;42804;55.762;38.084;2023-05-29T05:25:43;2.00;2.00;1.00
56495;PMS5003;42804;55.762;38.084;2023-05-29T05:28:31;2.00;1.00;1.00
56495;PMS5003;42804;55.762;38.084;2023-05-29T05:31:01;1.00;1.00;0.75
56495;PMS5003;42804;55.762;38.084;2023-05-29T05:33:31;2.25;2.25;2.00
56495;PMS5003;42804;55.762;38.084;2023-05-29T05:35:59;1.00;1.00;1.00
56495;PMS5003;42804;55.762;38.084;2023-05-29T05:38:28;2.25;2.00;1.00
56495;PMS5003;42804;55.762;38.084;2023-05-29T05:41:00;2.00;1.75;1.00
56495;PMS5003;42804;55.762;38.084;2023-05-29T05:43:32;2.00;1.00;1.00
56495;PMS5003;42804;55.762;38.084;2023-05-29T05:46:27;1.00;1.00;1.00
56495;PMS5003;42804;55.762;38.084;2023-05-29T05:48:56;2.00;2.00;1.00
56495;PMS5003;42804;55.762;38.084;2023-05-29T05:51:25;1.75;1.50;1.00
56495;PMS5003;42804;55.762;38.084;2023-05-29T05:53:54;2.00;2.00;1.00
56495;PMS5003;42804;55.762;38.084;2023-05-29T05:56:24;1.75;1.00;1.00
56495;PMS5003;42804;55.762;38.084;2023-05-29T05:58:53;1.00;1.00;0.00
56495;PMS5003;42804;55.762;38.084;2023-05-29T06:01:21;1.50;1.50;1.00
56495;PMS5003;42804;55.762;38.084;2023-05-29T06:03:50;1.00;1.00;0.00
56495;PMS5003;42804;55.762;38.084;2023-05-29T06:06:19;1.25;1.00;1.00
56495;PMS5003;42804;55.762;38.084;2023-05-29T06:08:49;0.00;0.00;0.00
56495;PMS5003;42804;55.762;38.084;2023-05-29T06:11:17;1.00;1.00;0.00
56495;PMS5003;42804;55.762;38.084;2023-05-29T06:13:48;0.00;0.00;0.00
56495;PMS5003;42804;55.762;38.084;2023-05-29T06:16:27;1.75;1.75;1.00
56495;PMS5003;42804;55.762;38.084;2023-05-29T06:18:56;0.00;0.00;0.00
56495;PMS5003;42804;55.762;38.084;2023-05-29T06:21:26;0.00;0.00;0.00
56495;PMS5003;42804;55.762;38.084;2023-05-29T06:23:56;0.75;0.75;0.00
56495;PMS5003;42804;55.762;38.084;2023-05-29T06:26:26;1.00;1.00;0.00
56495;PMS5003;42804;55.762;38.084;2023-05-29T06:28:57;0.25;0.25;0.00
56495;PMS5003;42804;55.762;38.084;2023-05-29T06:31:26;1.00;1.00;0.75
56495;PMS5003;42804;55.762;38.084;2023-05-29T06:33:55;2.00;1.00;0.00
56495;PMS5003;42804;55.762;38.084;2023-05-29T06:36:24;0.00;0.00;0.00
56495;PMS5003;42804;55.762;38.084;2023-05-29T06:38:52;1.67;1.00;0.00
56495;PMS5003;42804;55.762;38.084;2023-05-29T06:41:22;2.75;1.75;1.50
56495;PMS5003;42804;55.762;38.084;2023-05-29T06:43:50;1.00;1.00;0.00
56495;PMS5003;42804;55.762;38.084;2023-05-29T06:46:22;1.00;1.00;1.00
56495;PMS5003;42804;55.762;38.084;2023-05-29T06:48:51;1.75;1.75;1.25
56495;PMS5003;42804;55.762;38.084;2023-05-29T06:51:22;1.50;1.00;0.00
56495;PMS5003;42804;55.762;38.084;2023-05-29T06:54:11;1.00;1.00;1.00
56495;PMS5003;42804;55.762;38.084;2023-05-29T06:56:39;1.25;1.00;0.75
56495;PMS5003;42804;55.762;38.084;2023-05-29T06:59:08;1.00;1.00;0.50
56495;PMS5003;42804;55.762;38.084;2023-05-29T07:01:38;1.00;1.00;0.00
56495;PMS5003;42804;55.762;38.084;2023-05-29T07:04:07;1.25;1.00;0.75
56495;PMS5003;42804;55.762;38.084;2023-05-29T07:06:36;1.00;1.00;0.00
56495;PMS5003;42804;55.762;38.084;2023-05-29T07:09:06;1.00;1.00;0.00
56495;PMS5003;42804;55.762;38.084;2023-05-29T07:11:35;1.50;1.50;0.25
56495;PMS5003;42804;55.762;38.084;2023-05-29T07:14:05;1.00;1.00;0.00
56495;PMS5003;42804;55.762;38.084;2023-05-29T07:16:33;0.25;0.25;0.00
56495;PMS5003;42804;55.762;38.084;2023-05-29T07:19:06;0.00;0.00;0.00
56495;PMS5003;42804;55.762;38.084;2023-05-29T07:21:47;0.00;0.00;0.00
56495;PMS5003;42804;55.762;38.084;2023-05-29T07:24:18;0.25;0.25;0.00
56495;PMS5003;42804;55.762;38.084;2023-05-29T07:26:48;1.50;0.00;0.00
56495;PMS5003;42804;55.762;38.084;2023-05-29T07:29:17;0.25;0.25;0.00
56495;PMS5003;42804;55.762;38.084;2023-05-29T07:31:47;0.75;0.75;0.00
56495;PMS5003;42804;55.762;38.084;2023-05-29T07:34:20;0.75;0.75;0.00
56495;PMS5003;42804;55.762;38.084;2023-05-29T07:36:58;1.00;1.00;0.00
56495;PMS5003;42804;55.762;38.084;2023-05-29T07:39:28;2.75;2.25;1.00
56495;PMS5003;42804;55.762;38.084;2023-05-29T07:42:00;1.00;0.50;0.00
56495;PMS5003;42804;55.762;38.084;2023-05-29T07:44:29;1.00;0.25;0.00
56495;PMS5003;42804;55.762;38.084;2023-05-29T07:46:58;1.50;1.00;0.00
56495;PMS5003;42804;55.762;38.084;2023-05-29T07:49:48;2.50;1.75;1.00
56495;PMS5003;42804;55.762;38.084;2023-05-29T07:52:18;0.00;0.00;0.00
56495;PMS5003;42804;55.762;38.084;2023-05-29T07:54:47;2.50;1.25;1.00
56495;PMS5003;42804;55.762;38.084;2023-05-29T07:57:15;2.00;2.00;1.50
56495;PMS5003;42804;55.762;38.084;2023-05-29T07:59:44;1.40;1.00;0.60
56495;PMS5003;42804;55.762;38.084;2023-05-29T08:02:16;1.00;1.00;0.00
56495;PMS5003;42804;55.762;38.084;2023-05-29T08:05:07;2.50;2.00;1.00
56495;PMS5003;42804;55.762;38.084;2023-05-29T08:07:36;3.25;2.50;1.75
56495;PMS5003;42804;55.762;38.084;2023-05-29T08:10:05;2.00;1.50;1.00
56495;PMS5003;42804;55.762;38.084;2023-05-29T08:12:34;1.50;1.50;1.00
56495;PMS5003;42804;55.762;38.084;2023-05-29T08:15:03;2.25;2.25;2.00
56495;PMS5003;42804;55.762;38.084;2023-05-29T08:17:32;1.75;1.75;1.00
56495;PMS5003;42804;55.762;38.084;2023-05-29T08:20:00;2.00;2.00;1.00
56495;PMS5003;42804;55.762;38.084;2023-05-29T08:22:31;0.75;0.75;0.00
56495;PMS5003;42804;55.762;38.084;2023-05-29T08:25:00;2.00;2.00;1.00
56495;PMS5003;42804;55.762;38.084;2023-05-29T08:27:30;1.00;1.00;1.00
56495;PMS5003;42804;55.762;38.084;2023-05-29T08:30:00;2.00;2.00;1.00
56495;PMS5003;42804;55.762;38.084;2023-05-29T08:32:31;1.75;1.50;0.00
56495;PMS5003;42804;55.762;38.084;2023-05-29T08:34:59;1.50;1.00;1.00
56495;PMS5003;42804;55.762;38.084;2023-05-29T08:37:31;1.00;1.00;0.50
56495;PMS5003;42804;55.762;38.084;2023-05-29T08:40:00;1.00;1.00;1.00
56495;PMS5003;42804;55.762;38.084;2023-05-29T08:42:36;2.00;2.00;1.00
56495;PMS5003;42804;55.762;38.084;2023-05-29T08:45:08;2.00;2.00;1.50
56495;PMS5003;42804;55.762;38.084;2023-05-29T08:47:40;2.75;1.75;1.00
56495;PMS5003;42804;55.762;38.084;2023-05-29T08:50:11;2.25;2.25;1.00
56495;PMS5003;42804;55.762;38.084;2023-05-29T08:52:51;1.50;1.50;1.00
56495;PMS5003;42804;55.762;38.084;2023-05-29T08:55:37;2.00;1.25;1.00
56495;PMS5003;42804;55.762;38.084;2023-05-29T08:58:05;0.75;0.75;0.00
56495;PMS5003;42804;55.762;38.084;2023-05-29T09:00:34;2.25;2.25;1.50
56495;PMS5003;42804;55.762;38.084;2023-05-29T09:03:05;1.25;1.25;0.75
56495;PMS5003;42804;55.762;38.084;2023-05-29T09:05:33;2.25;2.25;1.50
56495;PMS5003;42804;55.762;38.084;2023-05-29T09:08:08;1.00;1.00;1.00
56495;PMS5003;42804;55.762;38.084;2023-05-29T09:10:37;1.50;1.50;1.00
56495;PMS5003;42804;55.762;38.084;2023-05-29T09:13:06;2.00;2.00;1.00
56495;PMS5003;42804;55.762;38.084;2023-05-29T09:15:36;2.00;2.00;1.25
56495;PMS5003;42804;55.762;38.084;2023-05-29T09:18:07;0.50;0.50;0.00
56495;PMS5003;42804;55.762;38.084;2023-05-29T09:20:36;2.60;2.00;1.00
56495;PMS5003;42804;55.762;38.084;2023-05-29T09:23:26;1.50;1.00;0.50
56495;PMS5003;42804;55.762;38.084;2023-05-29T09:25:54;1.00;1.00;0.00
56495;PMS5003;42804;55.762;38.084;2023-05-29T09:28:24;3.00;2.00;1.25
56495;PMS5003;42804;55.762;38.084;2023-05-29T09:30:55;2.00;2.00;1.00
56495;PMS5003;42804;55.762;38.084;2023-05-29T09:33:24;2.00;1.80;0.40
56495;PMS5003;42804;55.762;38.084;2023-05-29T09:35:53;2.75;2.00;1.00
56495;PMS5003;42804;55.762;38.084;2023-05-29T09:38:21;1.00;1.00;0.00
56495;PMS5003;42804;55.762;38.084;2023-05-29T09:41:11;3.00;2.75;1.75
56495;PMS5003;42804;55.762;38.084;2023-05-29T09:43:39;2.00;2.00;2.00
56495;PMS5003;42804;55.762;38.084;2023-05-29T09:46:09;2.00;1.00;1.00
56495;PMS5003;42804;55.762;38.084;2023-05-29T09:48:43;2.00;2.00;1.50
56495;PMS5003;42804;55.762;38.084;2023-05-29T09:51:18;1.00;1.00;0.00
56495;PMS5003;42804;55.762;38.084;2023-05-29T09:53:47;2.00;2.00;0.75
56495;PMS5003;42804;55.762;38.084;2023-05-29T09:56:18;2.20;2.20;1.80
56495;PMS5003;42804;55.762;38.084;2023-05-29T09:58:51;2.50;2.00;1.00
56495;PMS5003;42804;55.762;38.084;2023-05-29T10:01:21;2.00;2.00;1.00
56495;PMS5003;42804;55.762;38.084;2023-05-29T10:03:51;3.00;3.00;1.25
56495;PMS5003;42804;55.762;38.084;2023-05-29T10:06:20;3.00;3.00;1.00
56495;PMS5003;42804;55.762;38.084;2023-05-29T10:08:50;1.00;1.00;0.00
56495;PMS5003;42804;55.762;38.084;2023-05-29T10:11:24;2.00;2.00;1.00
56495;PMS5003;42804;55.762;38.084;2023-05-29T10:13:54;3.25;2.00;2.00
56495;PMS5003;42804;55.762;38.084;2023-05-29T10:16:25;4.00;4.00;2.00
56495;PMS5003;42804;55.762;38.084;2023-05-29T10:18:54;3.00;3.00;2.50
56495;PMS5003;42804;55.762;38.084;2023-05-29T10:21:23;1.00;1.00;1.00
56495;PMS5003;42804;55.762;38.084;2023-05-29T10:23:54;4.75;3.00;2.00
56495;PMS5003;42804;55.762;38.084;2023-05-29T10:26:24;3.00;3.00;2.00
56495;PMS5003;42804;55.762;38.084;2023-05-29T10:28:56;1.75;1.75;0.75
56495;PMS5003;42804;55.762;38.084;2023-05-29T10:31:27;2.50;2.50;1.50
56495;PMS5003;42804;55.762;38.084;2023-05-29T10:34:01;2.25;2.25;1.00
56495;PMS5003;42804;55.762;38.084;2023-05-29T10:39:19;3.50;3.00;2.00
56495;PMS5003;42804;55.762;38.084;2023-05-29T10:41:49;3.00;2.50;2.00
56495;PMS5003;42804;55.762;38.084;2023-05-29T10:44:37;3.00;2.75;1.75
56495;PMS5003;42804;55.762;38.084;2023-05-29T10:47:06;3.50;3.25;2.00
56495;PMS5003;42804;55.762;38.084;2023-05-29T10:49:35;3.50;3.50;2.00
56495;PMS5003;42804;55.762;38.084;2023-05-29T10:52:04;4.00;3.50;2.00
56495;PMS5003;42804;55.762;38.084;2023-05-29T10:54:52;3.50;3.00;1.25
56495;PMS5003;42804;55.762;38.084;2023-05-29T10:57:22;3.50;3.50;2.75
56495;PMS5003;42804;55.762;38.084;2023-05-29T11:02:44;3.00;3.00;2.00
56495;PMS5003;42804;55.762;38.084;2023-05-29T11:05:22;3.00;3.00;2.00
56495;PMS5003;42804;55.762;38.084;2023-05-29T11:07:52;2.00;2.00;1.25
56495;PMS5003;42804;55.762;38.084;2023-05-29T11:10:41;2.00;2.00;2.00
56495;PMS5003;42804;55.762;38.084;2023-05-29T11:13:11;2.80;2.40;2.00
56495;PMS5003;42804;55.762;38.084;2023-05-29T11:16:03;2.50;2.00;0.75
56495;PMS5003;42804;55.762;38.084;2023-05-29T11:18:31;3.25;3.00;2.00
56495;PMS5003;42804;55.762;38.084;2023-05-29T11:21:06;2.60;2.00;1.80
56495;PMS5003;42804;55.762;38.084;2023-05-29T11:24:00;2.75;2.00;1.00
56495;PMS5003;42804;55.762;38.084;2023-05-29T11:26:38;3.00;3.00;2.00
56495;PMS5003;42804;55.762;38.084;2023-05-29T11:29:08;1.00;1.00;0.50
56495;PMS5003;42804;55.762;38.084;2023-05-29T11:31:39;6.00;4.75;3.00
56495;PMS5003;42804;55.762;38.084;2023-05-29T11:34:09;4.00;3.50;3.00
56495;PMS5003;42804;55.762;38.084;2023-05-29T11:36:37;2.00;2.00;1.25
56495;PMS5003;42804;55.762;38.084;2023-05-29T11:39:08;8.75;7.00;3.75
56495;PMS5003;42804;55.762;38.084;2023-05-29T11:41:37;3.00;3.00;2.00
56495;PMS5003;42804;55.762;38.084;2023-05-29T11:44:05;9.25;8.00;5.00
56495;PMS5003;42804;55.762;38.084;2023-05-29T11:46:35;5.25;4.00;2.25
56495;PMS5003;42804;55.762;38.084;2023-05-29T11:49:06;4.75;4.75;3.50
56495;PMS5003;42804;55.762;38.084;2023-05-29T11:51:34;4.75;4.00;3.00
56495;PMS5003;42804;55.762;38.084;2023-05-29T11:54:03;3.50;3.50;2.00
56495;PMS5003;42804;55.762;38.084;2023-05-29T11:56:33;4.00;4.00;3.00
56495;PMS5003;42804;55.762;38.084;2023-05-29T11:59:01;3.00;3.00;2.50
56495;PMS5003;42804;55.762;38.084;2023-05-29T12:01:38;0.50;0.00;0.00
56495;PMS5003;42804;55.762;38.084;2023-05-29T12:04:15;4.00;4.00;3.00
56495;PMS5003;42804;55.762;38.084;2023-05-29T12:06:44;3.00;3.00;2.00
56495;PMS5003;42804;55.762;38.084;2023-05-29T12:09:23;4.00;4.00;2.50
56495;PMS5003;42804;55.762;38.084;2023-05-29T12:11:51;3.75;3.75;3.00
56495;PMS5003;42804;55.762;38.084;2023-05-29T12:14:19;4.50;4.00;2.50
56495;PMS5003;42804;55.762;38.084;2023-05-29T12:16:49;4.33;4.33;3.00
56495;PMS5003;42804;55.762;38.084;2023-05-29T12:19:18;4.00;4.00;2.00
56495;PMS5003;42804;55.762;38.084;2023-05-29T12:21:46;3.00;3.00;2.25
56495;PMS5003;42804;55.762;38.084;2023-05-29T12:24:14;5.25;4.00;2.00
56495;PMS5003;42804;55.762;38.084;2023-05-29T12:26:43;3.50;3.50;3.00
56495;PMS5003;42804;55.762;38.084;2023-05-29T12:29:11;1.50;1.50;1.00
56495;PMS5003;42804;55.762;38.084;2023-05-29T12:31:39;4.00;2.75;1.75
56495;PMS5003;42804;55.762;38.084;2023-05-29T12:34:10;2.75;2.50;2.00
56495;PMS5003;42804;55.762;38.084;2023-05-29T12:36:39;3.00;3.00;1.75
56495;PMS5003;42804;55.762;38.084;2023-05-29T12:39:43;5.00;4.25;3.00
56495;PMS5003;42804;55.762;38.084;2023-05-29T12:42:12;3.00;3.00;2.00
56495;PMS5003;42804;55.762;38.084;2023-05-29T12:44:43;2.00;2.00;1.75
56495;PMS5003;42804;55.762;38.084;2023-05-29T12:47:13;3.00;3.00;2.00
56495;PMS5003;42804;55.762;38.084;2023-05-29T12:49:43;3.75;3.75;3.00
56495;PMS5003;42804;55.762;38.084;2023-05-29T12:54:58;5.00;4.00;3.00
56495;PMS5003;42804;55.762;38.084;2023-05-29T12:57:27;4.00;3.00;2.00
56495;PMS5003;42804;55.762;38.084;2023-05-29T12:59:55;3.00;3.00;2.00
56495;PMS5003;42804;55.762;38.084;2023-05-29T13:02:23;3.25;3.00;2.00
56495;PMS5003;42804;55.762;38.084;2023-05-29T13:04:53;4.25;4.25;3.75
56495;PMS5003;42804;55.762;38.084;2023-05-29T13:07:21;5.00;4.75;3.00
56495;PMS5003;42804;55.762;38.084;2023-05-29T13:09:50;4.00;3.75;3.00
56495;PMS5003;42804;55.762;38.084;2023-05-29T13:12:18;4.25;3.50;3.00
56495;PMS5003;42804;55.762;38.084;2023-05-29T13:14:46;4.00;3.00;2.50
56495;PMS5003;42804;55.762;38.084;2023-05-29T13:17:15;3.80;3.20;2.20
56495;PMS5003;42804;55.762;38.084;2023-05-29T13:19:44;4.75;4.25;3.00
56495;PMS5003;42804;55.762;38.084;2023-05-29T13:22:13;4.25;4.00;3.00
56495;PMS5003;42804;55.762;38.084;2023-05-29T13:24:42;3.00;3.00;2.00
56495;PMS5003;42804;55.762;38.084;2023-05-29T13:29:57;4.00;3.00;2.25
56495;PMS5003;42804;55.762;38.084;2023-05-29T13:32:42;2.00;2.00;1.75
56495;PMS5003;42804;55.762;38.084;2023-05-29T13:35:11;3.00;3.00;2.00
56495;PMS5003;42804;55.762;38.084;2023-05-29T13:37:41;3.80;3.80;2.80
56495;PMS5003;42804;55.762;38.084;2023-05-29T13:40:10;3.00;3.00;2.00
56495;PMS5003;42804;55.762;38.084;2023-05-29T13:42:39;2.80;2.80;2.20
56495;PMS5003;42804;55.762;38.084;2023-05-29T13:45:08;4.50;4.00;3.50
56495;PMS5003;42804;55.762;38.084;2023-05-29T13:47:38;4.75;4.00;3.00
56495;PMS5003;42804;55.762;38.084;2023-05-29T13:50:07;3.50;3.25;3.00
56495;PMS5003;42804;55.762;38.084;2023-05-29T13:52:36;3.25;3.25;2.50
56495;PMS5003;42804;55.762;38.084;2023-05-29T13:55:06;2.75;2.75;2.00
56495;PMS5003;42804;55.762;38.084;2023-05-29T13:57:36;3.00;3.00;2.00
56495;PMS5003;42804;55.762;38.084;2023-05-29T14:00:04;3.00;3.00;2.00
56495;PMS5003;42804;55.762;38.084;2023-05-29T14:02:37;4.25;3.00;2.00
56495;PMS5003;42804;55.762;38.084;2023-05-29T14:05:06;3.50;3.50;2.50
56495;PMS5003;42804;55.762;38.084;2023-05-29T14:07:34;3.75;3.00;2.00
56495;PMS5003;42804;55.762;38.084;2023-05-29T14:10:03;3.50;3.00;2.00
56495;PMS5003;42804;55.762;38.084;2023-05-29T14:12:34;3.50;3.50;2.00
56495;PMS5003;42804;55.762;38.084;2023-05-29T14:15:02;4.00;3.75;3.00
56495;PMS5003;42804;55.762;38.084;2023-05-29T14:17:33;4.75;3.50;2.25
56495;PMS5003;42804;55.762;38.084;2023-05-29T14:20:02;4.00;4.00;3.00
56495;PMS5003;42804;55.762;38.084;2023-05-29T14:22:35;3.00;3.00;2.00
56495;PMS5003;42804;55.762;38.084;2023-05-29T14:25:04;4.00;3.25;2.00
56495;PMS5003;42804;55.762;38.084;2023-05-29T14:27:34;4.00;3.50;2.50
56495;PMS5003;42804;55.762;38.084;2023-05-29T14:30:04;4.75;3.75;2.00
56495;PMS5003;42804;55.762;38.084;2023-05-29T14:32:34;4.25;4.25;4.00
56495;PMS5003;42804;55.762;38.084;2023-05-29T14:35:02;4.75;4.00;3.00
56495;PMS5003;42804;55.762;38.084;2023-05-29T14:37:32;5.25;4.00;2.00
56495;PMS5003;42804;55.762;38.084;2023-05-29T14:40:00;4.75;4.00;3.00
56495;PMS5003;42804;55.762;38.084;2023-05-29T14:42:31;3.50;3.50;2.75
56495;PMS5003;42804;55.762;38.084;2023-05-29T14:45:02;5.00;4.25;3.00
56495;PMS5003;42804;55.762;38.084;2023-05-29T14:47:32;5.00;3.50;2.00